createdAt,value
2022-10-08T00:02:25.758Z,2.0
2022-10-08T00:07:31.968Z,2.0
2022-10-08T00:12:38.202Z,3.0
2022-10-08T00:17:44.407Z,2.0
2022-10-08T00:22:50.615Z,2.0
2022-10-08T00:27:56.840Z,3.0
2022-10-08T00:33:03.086Z,2.0
2022-10-08T00:38:09.273Z,2.0
2022-10-08T00:48:21.701Z,2.0
2022-10-08T00:53:27.912Z,3.0
2022-10-08T00:58:34.128Z,2.0
2022-10-08T01:03:40.345Z,3.0
2022-10-08T01:08:46.635Z,2.0
2022-10-08T01:13:52.773Z,2.0
2022-10-08T01:18:58.989Z,2.0
2022-10-08T01:24:05.207Z,2.0
2022-10-08T01:29:11.430Z,2.0
2022-10-08T01:34:17.633Z,2.0
2022-10-08T01:39:22.876Z,3.0
2022-10-08T01:44:29.093Z,3.0
2022-10-08T01:49:34.345Z,4.0
2022-10-08T01:54:40.559Z,4.0
2022-10-08T01:59:45.812Z,4.0
2022-10-08T02:04:52.006Z,5.0
2022-10-08T02:09:58.213Z,5.0
2022-10-08T02:15:04.441Z,5.0
2022-10-08T02:20:10.646Z,4.0
2022-10-08T02:25:16.857Z,5.0
2022-10-08T02:30:23.066Z,4.0
2022-10-08T02:35:29.292Z,4.0
2022-10-08T02:40:35.495Z,5.0
2022-10-08T02:45:41.747Z,5.0
2022-10-08T02:50:47.929Z,5.0
2022-10-08T02:55:54.137Z,4.0
2022-10-08T03:01:00.431Z,4.0
2022-10-08T03:06:06.570Z,4.0
2022-10-08T03:11:12.793Z,4.0
2022-10-08T03:16:19.065Z,3.0
2022-10-08T03:21:25.217Z,3.0
2022-10-08T03:26:31.430Z,3.0
2022-10-08T03:31:37.656Z,3.0
2022-10-08T03:36:43.854Z,2.0
2022-10-08T03:41:50.085Z,3.0
2022-10-08T03:46:55.316Z,2.0
2022-10-08T03:57:07.733Z,2.0
2022-10-08T04:02:13.978Z,2.0
2022-10-08T04:07:20.157Z,2.0
2022-10-08T04:12:26.363Z,2.0
2022-10-08T04:17:32.569Z,2.0
2022-10-08T04:22:38.789Z,2.0
2022-10-08T04:27:44.993Z,2.0
2022-10-08T04:32:51.205Z,2.0
2022-10-08T04:37:57.423Z,2.0
2022-10-08T04:43:03.638Z,2.0
2022-10-08T04:48:09.837Z,3.0
2022-10-08T04:53:16.050Z,3.0
2022-10-08T04:58:22.285Z,3.0
2022-10-08T05:03:28.461Z,4.0
2022-10-08T05:08:34.671Z,6.0
2022-10-08T05:13:40.899Z,9.0
2022-10-08T05:18:47.092Z,10.0
2022-10-08T05:23:53.322Z,11.0
2022-10-08T05:28:59.512Z,13.0
2022-10-08T05:34:05.728Z,14.0
2022-10-08T05:39:10.950Z,15.0
2022-10-08T05:44:17.174Z,16.0
2022-10-08T05:49:22.411Z,16.0
2022-10-08T05:54:28.611Z,17.0
2022-10-08T05:59:33.844Z,19.0
2022-10-08T06:04:40.123Z,19.0
2022-10-08T06:09:46.260Z,19.0
2022-10-08T06:14:52.470Z,21.0
2022-10-08T06:19:58.674Z,21.5
2022-10-08T06:25:04.888Z,23.0
2022-10-08T06:30:11.124Z,23.5
2022-10-08T06:35:17.310Z,25.0
2022-10-08T06:40:23.514Z,26.5
2022-10-08T06:45:29.729Z,26.0
2022-10-08T06:50:35.938Z,28.0
2022-10-08T06:55:42.147Z,28.0
2022-10-08T07:00:48.390Z,30.0
2022-10-08T07:05:54.569Z,31.0
2022-10-08T07:11:00.784Z,30.0
2022-10-08T07:16:07.018Z,30.0
2022-10-08T07:21:13.202Z,29.0
2022-10-08T07:26:19.411Z,29.0
2022-10-08T07:31:25.680Z,26.0
2022-10-08T07:36:31.833Z,27.0
2022-10-08T07:41:38.043Z,27.0
2022-10-08T07:46:43.283Z,25.0
2022-10-08T07:51:49.499Z,24.0
2022-10-08T07:56:54.750Z,23.0
2022-10-08T08:02:01.004Z,22.0
2022-10-08T08:07:07.165Z,21.0
2022-10-08T08:12:13.390Z,18.0
2022-10-08T08:17:19.597Z,17.0
2022-10-08T08:22:25.819Z,12.0
2022-10-08T08:27:32.035Z,11.0
2022-10-08T08:32:38.253Z,7.0
2022-10-08T08:37:44.466Z,5.0
2022-10-08T08:42:50.683Z,5.0
2022-10-08T08:47:56.901Z,3.0
2022-10-08T08:53:03.110Z,3.0
2022-10-08T08:58:11.204Z,2.0
2022-10-08T09:03:15.515Z,2.0
2022-10-08T09:08:21.727Z,2.0
2022-10-08T09:13:27.933Z,2.0
2022-10-08T09:18:34.138Z,1.0
2022-10-08T09:23:40.353Z,1.0
2022-10-08T09:28:46.617Z,1.0
2022-10-08T09:33:52.769Z,1.0
2022-10-08T09:38:58.974Z,1.0
2022-10-08T09:44:04.217Z,1.0
2022-10-08T09:49:10.420Z,1.0
2022-10-08T09:54:15.655Z,1.0
2022-10-08T09:59:21.969Z,1.0
2022-10-08T10:04:28.071Z,1.0
2022-10-08T10:09:34.280Z,1.0
2022-10-08T10:14:40.491Z,1.0
2022-10-08T10:19:46.696Z,1.0
2022-10-08T10:24:52.908Z,1.0
2022-10-08T10:29:59.110Z,1.0
2022-10-08T10:35:05.321Z,1.0
2022-10-08T10:40:11.539Z,1.0
2022-10-08T10:45:17.741Z,1.0
2022-10-08T10:50:23.955Z,1.0
2022-10-08T10:55:30.173Z,1.0
2022-10-08T11:00:36.376Z,1.0
2022-10-08T11:05:42.576Z,1.0
2022-10-08T11:10:48.788Z,1.0
2022-10-08T11:15:55.046Z,1.0
2022-10-08T11:21:01.197Z,1.0
2022-10-08T11:26:21.820Z,1.0
2022-10-08T11:31:13.662Z,1.0
2022-10-08T11:36:19.819Z,1.0
2022-10-08T11:41:25.058Z,1.0
2022-10-08T11:46:31.500Z,1.0
2022-10-08T11:51:36.509Z,1.0
2022-10-08T11:56:42.712Z,0.0
2022-10-08T12:01:48.923Z,0.0
2022-10-08T12:06:55.133Z,1.0
2022-10-08T12:12:01.333Z,1.0
2022-10-08T12:17:07.560Z,1.0
2022-10-08T12:22:13.766Z,1.0
2022-10-08T12:27:19.963Z,1.0
2022-10-08T12:32:26.173Z,1.0
2022-10-08T12:37:32.389Z,0.0
2022-10-08T12:42:38.587Z,0.0
2022-10-08T12:47:45.172Z,0.0
2022-10-08T12:52:50.025Z,1.0
2022-10-08T12:57:56.230Z,1.0
2022-10-08T13:03:02.432Z,0.0
2022-10-08T13:08:08.646Z,1.0
2022-10-08T13:13:14.853Z,1.0
2022-10-08T13:18:21.068Z,1.0
2022-10-08T13:23:27.271Z,0.0
2022-10-08T13:28:59.417Z,1.0
2022-10-08T13:33:39.683Z,0.0
2022-10-08T13:38:44.922Z,0.0
2022-10-08T13:43:51.130Z,0.0
2022-10-08T13:48:57.339Z,1.0
2022-10-08T13:54:03.544Z,1.0
2022-10-08T13:59:09.753Z,0.0
2022-10-08T14:04:15.965Z,1.0
2022-10-08T14:09:22.183Z,1.0
2022-10-08T14:14:28.408Z,1.0
2022-10-08T14:19:34.588Z,1.0
2022-10-08T14:24:40.799Z,1.0
2022-10-08T14:29:47.016Z,1.0
2022-10-08T14:34:53.215Z,1.0
2022-10-08T14:39:59.423Z,1.0
2022-10-08T14:45:05.627Z,0.0
2022-10-08T14:50:11.837Z,1.0
2022-10-08T14:55:18.049Z,1.0
2022-10-08T15:00:24.254Z,1.0
2022-10-08T15:05:30.461Z,1.0
2022-10-08T15:10:36.672Z,1.0
2022-10-08T15:15:42.886Z,1.0
2022-10-08T15:20:49.092Z,1.0
2022-10-08T15:25:54.331Z,1.0
2022-10-08T15:31:00.533Z,1.0
2022-10-08T15:36:05.768Z,1.0
2022-10-08T15:41:11.997Z,1.0
2022-10-08T15:46:18.254Z,1.0
2022-10-08T15:51:24.400Z,1.0
2022-10-08T15:56:30.603Z,1.0
2022-10-08T16:01:37.033Z,1.0
2022-10-08T16:06:43.032Z,1.0
2022-10-08T16:16:55.455Z,1.0
2022-10-08T16:22:01.644Z,1.0
2022-10-08T16:27:07.854Z,2.0
2022-10-08T16:32:14.068Z,1.0
2022-10-08T16:37:20.276Z,1.0
2022-10-08T16:42:26.488Z,1.0
2022-10-08T16:47:32.695Z,1.0
2022-10-08T16:52:38.899Z,1.0
2022-10-08T16:57:51.300Z,1.0
2022-10-08T17:02:51.596Z,2.0
2022-10-08T17:07:57.519Z,1.0
2022-10-08T17:13:03.738Z,1.0
2022-10-08T17:18:09.942Z,1.0
2022-10-08T17:23:16.153Z,1.0
2022-10-08T17:28:21.454Z,1.0
2022-10-08T17:33:30.079Z,1.0
2022-10-08T17:38:33.796Z,1.0
2022-10-08T17:43:39.031Z,1.0
2022-10-08T17:48:45.251Z,1.0
2022-10-08T17:53:51.459Z,3.0
2022-10-08T17:58:57.673Z,3.0
2022-10-08T18:04:03.896Z,3.0
2022-10-08T18:09:10.121Z,3.0
2022-10-08T18:14:16.314Z,2.0
2022-10-08T18:19:22.530Z,1.0
2022-10-08T18:24:28.743Z,2.5
2022-10-08T18:29:34.959Z,3.0
2022-10-08T18:34:41.185Z,3.0
2022-10-08T18:39:47.380Z,2.0
2022-10-08T18:44:53.595Z,2.0
2022-10-08T18:49:59.811Z,3.0
2022-10-08T18:55:06.042Z,2.0
2022-10-08T19:00:12.228Z,2.0
2022-10-08T19:05:18.433Z,3.0
2022-10-08T19:10:24.635Z,3.0
2022-10-08T19:15:30.943Z,4.0
2022-10-08T19:20:37.056Z,9.0
2022-10-08T19:25:43.267Z,9.0
2022-10-08T19:30:48.531Z,6.0
2022-10-08T19:35:54.714Z,5.0
2022-10-08T19:41:00.913Z,5.0
2022-10-08T19:51:13.326Z,4.0
2022-10-08T19:56:19.540Z,3.5
2022-10-08T20:01:25.776Z,3.0
2022-10-08T20:06:31.957Z,4.0
2022-10-08T20:11:38.168Z,3.0
2022-10-08T20:16:44.470Z,3.0
2022-10-08T20:21:50.603Z,3.0
2022-10-08T20:26:56.799Z,3.0
2022-10-08T20:32:02.995Z,2.5
2022-10-08T20:37:09.236Z,3.0
2022-10-08T20:42:15.416Z,3.0
2022-10-08T20:47:21.623Z,3.0
2022-10-08T20:52:27.832Z,3.0
2022-10-08T20:57:34.038Z,3.0
2022-10-08T21:02:40.244Z,3.0
2022-10-08T21:07:46.459Z,3.0
2022-10-08T21:12:52.665Z,3.0
2022-10-08T21:17:58.876Z,3.0
2022-10-08T21:23:04.107Z,3.0
2022-10-08T21:28:10.378Z,4.0
2022-10-08T21:33:15.550Z,4.0
2022-10-08T21:38:21.764Z,4.0
2022-10-08T21:43:26.993Z,4.0
2022-10-08T21:48:33.206Z,4.0
2022-10-08T21:53:39.410Z,3.0
2022-10-08T21:58:45.617Z,4.0
2022-10-08T22:03:51.824Z,4.0
2022-10-08T22:08:58.034Z,4.0
2022-10-08T22:14:04.239Z,4.0
2022-10-08T22:19:10.450Z,4.0
2022-10-08T22:24:16.656Z,4.0
2022-10-08T22:29:22.872Z,4.0
2022-10-08T22:34:29.070Z,3.0
2022-10-08T22:39:35.277Z,4.0
2022-10-08T22:44:41.499Z,4.0
2022-10-08T22:49:47.697Z,5.0
2022-10-08T22:54:53.907Z,5.0
2022-10-08T23:00:00.166Z,5.0
2022-10-08T23:05:06.319Z,5.0
2022-10-08T23:10:12.530Z,4.0
2022-10-08T23:15:18.734Z,4.0
2022-10-08T23:20:24.939Z,4.0
2022-10-08T23:25:31.149Z,4.0
2022-10-08T23:30:43.047Z,4.0
2022-10-08T23:35:42.603Z,3.0
2022-10-08T23:40:48.900Z,3.0
2022-10-08T23:45:55.099Z,3.0
2022-10-08T23:51:00.243Z,3.0
2022-10-08T23:56:06.452Z,4.0
